Nur fliegen ist schöner ....

Willkommen beim Flugservice Bautzen GmbH

Wir sind eine nach europäischen Richtlinien zugelassene Flugschule und lizenziertes Luftfahrtunternehmen. Bei uns können sie nicht nur Rundflüge über die Oberlausitz oder Sachsen buchen, sondern in unserer Flugschule selber das Fliegen erlernen. Erfahrene Fluglehrer stehen ihnen dabei zur Seite.

Wir bieten außerdem Businessflüghe sowie Transportleistungen auf dem Luftweg, ganz nach ihren Wünschen, an. Schauen sie sich in Ruhe bei uns um und wenn sie Fragen haben oder weitere Informationen benötigen, scheuen sie sich nicht Kontakt mit uns aufzunehmen.

Rundflüge können sie ganz leicht auch online in unserem Shop buchen.

Terminkalender

Letzter Monat November 2017 Nächster Monat
Mo Di Mi Do Fr Sa So
week 44 1 2 3 4 5
week 45 6 7 8 9 10 11 12
week 46 13 14 15 16 17 18 19
week 47 20 21 22 23 24 25 26
week 48 27 28 29 30

Flugwetterinfo

[Quelle: ADDS]
METAR
EDDC 192120Z 30014KT 250V330 9999 SCT012 BKN017 04/03 Q1010 =
TAF
EDDC 191700Z 1918/2018 26015KT 9999 BKN025 TEMPO 1918/1924 28015G25KT SHRA BKN012CB BECMG 2002/2004 BKN012 TEMPO 2004/2008 3500 -RA BKN009 PROB40 TEMPO 2008/2018 BKN015 =
SR / SS: 06:26 / 15:08 UTC (EDAB Flugplatz Bautzen 2017-11-19)

Webcam EDAB

Webcam EDAB
Flugservice Bautzen GmbH, Kornmarkt 34, 02625 Bautzen  Telefon: +49 (3591) 211105, Telefax: +49 (3591) 274512, E-Mail:  flugservice(at)fsbautzen.de